Time;durP1;ratioP1;P1;durP2;ratioP2;P2;SDS_P1;SDS_P2;PMS_P1;PMS_P2;Temp;Humidity;BMP_temperature;BMP_pressure;BME280_temperature;BME280_humidity;BME280_pressure;Samples;Min_cycle;Max_cycle;Signal;HPM_P1;HPM_P2
2022/07/29 00:01:22;;;;;;;5.13;1.20;;;;;;;18.12;59.05;101662.50;5074800;28;19913;-36
2022/07/29 00:03:47;;;;;;;;;;;;;;;18.27;57.45;101665.38;5074585;28;20035;-36
2022/07/29 00:06:14;;;;;;;3.78;1.00;;;;;;;18.15;59.10;101667.44;5074576;28;19951;-36
2022/07/29 00:08:39;;;;;;;2.22;1.10;;;;;;;18.02;59.24;101659.69;5073887;28;20465;-36
2022/07/29 00:11:05;;;;;;;3.33;1.20;;;;;;;18.05;59.90;101681.06;5074082;28;20035;-36
2022/07/29 00:13:30;;;;;;;;;;;;;;;18.21;58.05;101682.84;5074328;28;20397;-36
2022/07/29 00:15:55;;;;;;;2.22;0.98;;;;;;;18.01;59.50;101669.00;5073692;28;19919;-36
2022/07/29 00:18:20;;;;;;;;;;;;;;;18.12;58.30;101673.47;5074485;28;20025;-36
2022/07/29 00:20:46;;;;;;;6.43;0.90;;;;;;;17.95;59.75;101673.56;5073754;28;19982;-36
2022/07/29 00:23:11;;;;;;;;;;;;;;;17.98;58.76;101667.59;5074602;28;20116;-36
2022/07/29 00:25:36;;;;;;;2.80;1.10;;;;;;;17.94;60.62;101673.84;5073912;28;19992;-37
2022/07/29 00:28:02;;;;;;;;;;;;;;;18.07;58.41;101669.88;5073709;28;20279;-37
2022/07/29 00:30:27;;;;;;;4.95;1.20;;;;;;;17.97;59.83;101665.13;5074073;28;19963;-35
2022/07/29 00:32:52;;;;;;;;;;;;;;;18.00;58.90;101661.84;5073959;28;20028;-35
2022/07/29 00:38:01;;;;;;;2.83;1.02;;;;;;;17.74;60.86;101645.22;5073672;28;20082;-35
2022/07/29 00:40:26;;;;;;;2.72;1.10;;;;;;;17.81;61.17;101658.66;5073658;28;20441;-35
2022/07/29 00:42:52;;;;;;;;;;;;;;;17.98;59.74;101658.56;5073777;28;20033;-35
2022/07/29 00:45:18;;;;;;;3.97;1.10;;;;;;;17.85;61.09;101659.81;5073088;28;19908;-35
2022/07/29 00:47:43;;;;;;;;;;;;;;;18.04;59.32;101660.25;5073686;28;20028;-35
2022/07/29 00:50:11;;;;;;;3.87;0.90;;;;;;;17.86;62.23;101668.84;5073543;28;20273;-35
2022/07/29 00:52:38;;;;;;;3.55;1.10;;;;;;;17.83;62.97;101658.44;5072245;28;20271;-35
2022/07/29 00:55:05;;;;;;;3.00;0.90;;;;;;;17.92;61.44;101667.81;5072978;28;20039;-35
2022/07/29 00:57:31;;;;;;;5.88;1.30;;;;;;;17.85;61.51;101672.66;5073564;28;20372;-36
2022/07/29 00:59:57;;;;;;;4.88;0.90;;;;;;;17.88;62.23;101677.63;5073714;28;20115;-36
2022/07/29 01:02:22;;;;;;;;;;;;;;;18.02;60.15;101689.81;5073542;28;20345;-36
2022/07/29 01:04:48;;;;;;;1.90;0.93;;;;;;;17.86;61.57;101677.03;5073180;28;20325;-36
2022/07/29 01:07:15;;;;;;;2.28;0.90;;;;;;;17.85;61.33;101678.13;5072788;28;20059;-35
2022/07/29 01:09:42;;;;;;;5.47;0.98;;;;;;;17.87;61.76;101697.88;5073322;28;20036;-35
2022/07/29 01:12:07;;;;;;;2.00;1.08;;;;;;;17.90;61.14;101708.28;5072989;28;20051;-35
2022/07/29 01:14:34;;;;;;;3.30;0.98;;;;;;;17.94;60.93;101707.50;5072997;28;20032;-35
2022/07/29 01:17:06;;;;;;;4.00;1.27;;;;;;;17.84;62.48;101692.91;5072937;28;20067;-35
2022/07/29 01:19:57;;;;;;;3.60;1.20;;;;;;;17.81;61.51;101683.28;5073172;28;20032;-35
2022/07/29 01:22:49;;;;;;;4.18;1.30;;;;;;;17.71;61.85;101684.03;5073343;28;20036;-36
2022/07/29 01:26:03;;;;;;;2.78;1.30;;;;;;;17.54;62.79;101658.66;5072900;28;20056;-35
2022/07/29 01:28:56;;;;;;;3.60;1.05;;;;;;;17.49;63.69;101647.69;5073360;28;20041;-35
2022/07/29 01:31:35;;;;;;;7.00;1.33;;;;;;;17.42;64.45;101636.09;5072948;28;20045;-36
2022/07/29 01:34:05;;;;;;;4.03;1.40;;;;;;;17.35;65.19;101635.50;5073115;28;20423;-36
2022/07/29 01:36:36;;;;;;;3.88;1.42;;;;;;;17.28;65.88;101629.41;5072873;28;20039;-36
2022/07/29 01:39:11;;;;;;;5.35;1.25;;;;;;;17.20;65.91;101634.25;5073346;28;20098;-36
2022/07/29 01:41:40;;;;;;;4.57;1.55;;;;;;;17.02;66.59;101629.09;5072973;28;20426;-37
2022/07/29 01:44:13;;;;;;;2.83;1.30;;;;;;;17.02;67.07;101620.91;5072402;28;20111;-35
2022/07/29 01:46:55;;;;;;;3.83;1.42;;;;;;;17.03;67.22;101613.53;5073447;28;20036;-35
2022/07/29 01:49:35;;;;;;;2.10;1.20;;;;;;;17.11;66.41;101602.97;5073004;28;20115;-36
2022/07/29 01:52:07;;;;;;;5.88;1.67;;;;;;;17.08;66.90;101598.03;5073398;28;20032;-36
2022/07/29 01:54:38;;;;;;;2.47;1.00;;;;;;;17.06;66.96;101597.47;5072824;28;20028;-36
2022/07/29 01:57:06;;;;;;;2.53;1.10;;;;;;;17.20;67.02;101603.34;5072894;28;20053;-36
2022/07/29 01:59:34;;;;;;;3.35;1.30;;;;;;;17.23;66.99;101598.22;5072825;28;20040;-35
2022/07/29 02:02:04;;;;;;;2.97;1.30;;;;;;;17.32;65.89;101609.47;5073282;28;20123;-35
2022/07/29 02:04:33;;;;;;;3.75;1.20;;;;;;;17.27;65.96;101597.69;5076619;28;20032;-36
2022/07/29 02:07:02;;;;;;;3.22;1.55;;;;;;;17.16;66.23;101600.31;5076601;28;20085;-36
2022/07/29 02:09:29;;;;;;;3.30;1.20;;;;;;;17.13;65.98;101592.63;5076328;28;20036;-36
2022/07/29 02:11:57;;;;;;;2.95;1.05;;;;;;;17.27;66.17;101594.94;5076523;28;20111;-36
2022/07/29 02:14:23;;;;;;;2.97;1.17;;;;;;;17.17;65.88;101591.00;5076755;28;20078;-36
2022/07/29 02:16:51;;;;;;;4.25;1.17;;;;;;;17.14;66.60;101582.53;5076952;28;20029;-36
2022/07/29 02:19:19;;;;;;;2.65;1.50;;;;;;;17.02;66.54;101570.91;5075702;28;20043;-36
2022/07/29 02:21:46;;;;;;;3.17;1.38;;;;;;;17.02;66.95;101563.53;5076322;28;20032;-36
2022/07/29 02:24:12;;;;;;;4.32;1.50;;;;;;;17.08;66.65;101573.44;5074685;28;20090;-36
2022/07/29 02:26:41;;;;;;;4.28;1.10;;;;;;;16.94;67.17;101562.09;5076322;28;20490;-36
2022/07/29 02:29:08;;;;;;;5.25;1.30;;;;;;;16.94;67.34;101558.53;5075919;28;20537;-36
2022/07/29 02:31:35;;;;;;;3.55;1.40;;;;;;;16.89;67.27;101561.22;5076662;28;20039;-36
2022/07/29 02:34:04;;;;;;;6.38;1.10;;;;;;;16.97;67.11;101569.75;5075818;28;20026;-36
2022/07/29 02:36:32;;;;;;;6.10;1.30;;;;;;;16.97;67.39;101568.94;5076100;28;20428;-36
2022/07/29 02:39:00;;;;;;;4.85;1.05;;;;;;;16.99;67.56;101564.06;5076041;28;20178;-36
2022/07/29 02:41:45;;;;;;;4.60;1.27;;;;;;;16.96;67.38;101565.38;5075759;28;20028;-36
2022/07/29 02:44:19;;;;;;;5.63;1.35;;;;;;;16.82;67.72;101564.13;5075927;28;20024;-36
2022/07/29 02:47:02;;;;;;;2.95;1.25;;;;;;;16.94;67.27;101575.75;5075885;28;20032;-36
2022/07/29 02:49:40;;;;;;;4.30;1.20;;;;;;;16.87;68.28;101587.94;5075877;28;20021;-36
2022/07/29 02:52:16;;;;;;;4.93;1.73;;;;;;;16.79;67.73;101574.72;5075781;28;20064;-36
2022/07/29 02:54:49;;;;;;;3.33;1.30;;;;;;;16.82;68.50;101587.88;5076016;28;20424;-36
2022/07/29 02:57:22;;;;;;;4.18;1.70;;;;;;;16.75;68.44;101582.63;5076281;28;20052;-36
2022/07/29 02:59:51;;;;;;;4.28;1.35;;;;;;;16.67;69.21;101567.47;5075352;28;20081;-36
2022/07/29 03:02:17;;;;;;;2.45;1.17;;;;;;;16.81;69.09;101573.41;5075344;28;20021;-36
2022/07/29 03:04:44;;;;;;;3.00;1.27;;;;;;;16.68;69.45;101571.84;5074946;28;20035;-36
2022/07/29 03:07:12;;;;;;;7.25;1.40;;;;;;;16.61;69.22;101559.47;5075245;28;20044;-36
2022/07/29 03:09:38;;;;;;;3.83;1.45;;;;;;;16.65;69.35;101560.63;5075241;28;20051;-36
2022/07/29 03:12:04;;;;;;;;;;;;;;;16.82;68.08;101582.41;5075349;28;20123;-36
2022/07/29 03:14:31;;;;;;;3.70;1.40;;;;;;;16.56;70.21;101589.44;5074107;28;20007;-36
2022/07/29 03:16:58;;;;;;;2.08;1.15;;;;;;;16.42;70.29;101581.59;5075062;28;20033;-36
2022/07/29 03:19:23;;;;;;;4.22;1.60;;;;;;;16.33;71.08;101587.75;5075175;28;20033;-36
2022/07/29 03:21:49;;;;;;;;;;;;;;;16.52;68.46;101593.75;5075445;28;20039;-36
2022/07/29 03:24:35;;;;;;;4.38;1.35;;;;;;;16.44;70.21;101595.81;5075080;28;19912;-36
2022/07/29 03:27:01;;;;;;;2.97;1.30;;;;;;;16.52;70.42;101591.03;5074986;28;20035;-36
2022/07/29 03:29:26;;;;;;;;;;;;;;;16.63;68.47;101596.34;5075219;28;20032;-36
2022/07/29 03:31:52;;;;;;;2.08;1.15;;;;;;;16.55;70.48;101588.63;5074727;28;19909;-36
2022/07/29 03:34:18;;;;;;;;;;;;;;;16.69;68.44;101589.06;5075109;28;20035;-36
2022/07/29 03:36:43;;;;;;;3.45;1.30;;;;;;;16.65;70.40;101599.66;5074724;28;19908;-36
2022/07/29 03:39:09;;;;;;;;;;;;;;;16.74;68.36;101597.38;5075724;28;20029;-36
2022/07/29 03:41:38;;;;;;;2.45;1.15;;;;;;;16.61;70.38;101587.59;5074870;28;19916;-36
2022/07/29 03:44:05;;;;;;;3.58;1.30;;;;;;;16.60;70.64;101596.06;5074518;28;20021;-36
2022/07/29 03:46:33;;;;;;;3.72;1.45;;;;;;;16.60;70.43;101593.31;5074284;28;20083;-34
2022/07/29 03:49:02;;;;;;;4.50;1.55;;;;;;;16.45;70.78;101588.47;5074372;28;20033;-35
2022/07/29 03:51:28;;;;;;;3.70;1.52;;;;;;;16.48;71.77;101588.78;5074437;28;20064;-35
2022/07/29 03:53:54;;;;;;;6.70;1.50;;;;;;;16.36;71.60;101574.44;5072589;28;20098;-35
2022/07/29 03:56:21;;;;;;;;;;;;;;;16.58;69.69;101585.38;5074977;28;20156;-35
2022/07/29 03:58:48;;;;;;;;;;;;;;;16.61;68.86;101593.06;5074254;28;19913;-35
2022/07/29 04:01:15;;;;;;;3.30;1.70;;;;;;;16.46;71.34;101593.69;5074919;28;19912;-36
2022/07/29 04:03:40;;;;;;;6.65;1.77;;;;;;;16.44;71.70;101597.72;5074546;28;20270;-37
2022/07/29 04:06:06;;;;;;;;;;;;;;;16.57;69.59;101594.63;5075305;28;20529;-36
2022/07/29 04:08:32;;;;;;;4.63;1.52;;;;;;;16.38;72.44;101596.00;5074163;28;19916;-36
2022/07/29 04:10:59;;;;;;;3.88;1.50;;;;;;;16.28;73.16;101598.59;5073986;28;20032;-36
2022/07/29 04:13:24;;;;;;;4.32;1.50;;;;;;;16.28;73.11;101596.69;5073930;28;20041;-36
2022/07/29 04:15:49;;;;;;;;;;;;;;;16.43;70.62;101587.91;5074134;28;20031;-36
2022/07/29 04:18:15;;;;;;;5.00;1.73;;;;;;;16.30;73.11;101594.56;5074134;28;19913;-36
2022/07/29 04:20:40;;;;;;;;;;;;;;;16.38;70.97;101590.56;5074255;28;20029;-36
2022/07/29 04:23:05;;;;;;;4.13;1.47;;;;;;;16.27;73.69;101586.03;5073504;28;19951;-36
2022/07/29 04:25:30;;;;;;;;;;;;;;;16.37;71.02;101588.91;5074294;28;20052;-36
2022/07/29 04:28:01;;;;;;;2.70;1.67;;;;;;;16.15;74.60;101589.69;5073670;28;19908;-36
2022/07/29 04:30:27;;;;;;;3.55;1.83;;;;;;;16.15;74.39;101575.19;5073916;28;20043;-36
2022/07/29 04:32:52;;;;;;;;;;;;;;;16.27;71.77;101569.66;5073632;28;20047;-36
2022/07/29 04:35:21;;;;;;;3.17;1.87;;;;;;;16.12;74.60;101570.25;5074010;28;19938;-37
2022/07/29 04:37:47;;;;;;;3.40;2.03;;;;;;;16.07;74.92;101581.94;5073122;28;20290;-36
2022/07/29 04:40:12;;;;;;;;;;;;;;;16.17;72.35;101601.19;5074085;28;20038;-36
2022/07/29 04:42:38;;;;;;;4.90;2.20;;;;;;;15.87;75.52;101597.97;5073483;28;20257;-36
2022/07/29 04:45:04;;;;;;;;;;;;;;;16.03;73.07;101604.50;5073549;28;20028;-37
2022/07/29 04:47:29;;;;;;;4.18;2.10;;;;;;;15.87;76.16;101600.72;5073367;28;19915;-36
2022/07/29 04:49:55;;;;;;;;;;;;;;;16.05;72.78;101608.59;5073826;28;20430;-36
2022/07/29 04:52:21;;;;;;;5.03;1.98;;;;;;;16.01;75.51;101612.94;5073282;28;19916;-35
2022/07/29 04:54:47;;;;;;;;;;;;;;;16.08;73.33;101610.03;5073749;28;20369;-35
2022/07/29 04:57:12;;;;;;;5.40;2.17;;;;;;;15.93;75.92;101616.06;5073983;28;19928;-35
2022/07/29 04:59:37;;;;;;;;;;;;;;;16.04;73.50;101604.25;5074393;28;20031;-35
2022/07/29 05:02:03;;;;;;;5.17;1.87;;;;;;;15.93;75.99;101616.06;5073295;28;19909;-35
2022/07/29 05:04:28;;;;;;;;;;;;;;;16.10;73.35;101618.78;5073342;28;20020;-35
2022/07/29 05:06:53;;;;;;;6.83;2.00;;;;;;;16.07;75.56;101611.13;5072843;28;19912;-35
2022/07/29 05:09:18;;;;;;;;;;;;;;;16.17;73.36;101619.44;5073602;28;20116;-35
2022/07/29 05:11:44;;;;;;;3.80;2.03;;;;;;;16.03;76.49;101624.41;5072794;28;19912;-36
2022/07/29 05:14:09;;;;;;;;;;;;;;;16.17;74.47;101619.44;5074280;28;20380;-35
2022/07/29 05:16:34;;;;;;;3.23;1.93;;;;;;;15.94;76.80;101604.06;5073741;28;19954;-35
2022/07/29 05:19:00;;;;;;;;;;;;;;;16.14;75.75;101625.41;5073783;28;20028;-35
2022/07/29 05:21:25;;;;;;;4.40;2.10;;;;;;;15.91;77.65;101631.88;5073203;28;19920;-35
2022/07/29 05:23:50;;;;;;;4.83;2.10;;;;;;;15.86;78.16;101654.44;5072693;28;20634;-35
2022/07/29 05:26:16;;;;;;;4.97;2.40;;;;;;;15.83;77.68;101654.91;5073718;28;20259;-44
2022/07/29 05:28:41;;;;;;;;;;;;;;;15.97;76.13;101644.50;5105853;28;20024;-35
2022/07/29 05:31:06;;;;;;;3.90;2.10;;;;;;;15.81;78.17;101648.03;5072955;28;19912;-36
2022/07/29 05:33:31;;;;;;;;;;;;;;;15.90;76.10;101641.91;5073366;28;20031;-36
2022/07/29 05:35:57;;;;;;;3.65;2.00;;;;;;;15.88;77.71;101637.81;5073420;28;19924;-36
2022/07/29 05:38:22;;;;;;;;;;;;;;;16.08;75.93;101654.50;5075812;28;20024;-36
2022/07/29 05:40:47;;;;;;;2.90;2.03;;;;;;;15.98;77.72;101648.06;5110040;28;19912;-36
2022/07/29 05:43:13;;;;;;;;;;;;;;;16.11;75.53;101643.09;5077097;28;20290;-36
2022/07/29 05:45:38;;;;;;;5.77;1.97;;;;;;;16.09;77.51;101645.25;5077228;28;19912;-36
2022/07/29 05:48:04;;;;;;;5.78;2.15;;;;;;;15.97;77.67;101649.97;5076494;28;20293;-36
2022/07/29 05:50:29;;;;;;;;;;;;;;;16.14;76.81;101647.22;5077357;28;20036;-36
2022/07/29 05:52:54;;;;;;;4.80;2.03;;;;;;;16.05;77.97;101651.44;5076755;28;20007;-36
2022/07/29 05:55:19;;;;;;;;;;;;;;;16.20;76.13;101655.25;5077024;28;20127;-36
2022/07/29 05:57:45;;;;;;;10.30;2.17;;;;;;;16.28;76.93;101656.72;5076677;28;19919;-36
2022/07/29 06:00:10;;;;;;;;;;;;;;;16.35;76.62;101660.13;5076851;28;20078;-36
2022/07/29 06:02:36;;;;;;;4.28;2.15;;;;;;;16.32;77.35;101654.34;5076589;28;19909;-35
2022/07/29 06:05:01;;;;;;;;;;;;;;;16.44;76.27;101652.31;5076730;28;20360;-36
2022/07/29 06:07:27;;;;;;;3.42;2.13;;;;;;;16.39;77.90;101649.53;5076180;28;19915;-36
2022/07/29 06:09:52;;;;;;;;;;;;;;;16.59;75.85;101649.84;5077431;28;20032;-36
2022/07/29 06:12:17;;;;;;;4.72;2.33;;;;;;;16.51;76.28;101647.53;5076635;28;19995;-36
2022/07/29 06:14:43;;;;;;;5.57;2.10;;;;;;;16.54;76.50;101649.75;5076697;28;20033;-36
2022/07/29 06:17:08;;;;;;;;;;;;;;;16.70;75.19;101648.06;5076440;28;20612;-36
2022/07/29 06:19:37;;;;;;;6.22;2.22;;;;;;;16.73;75.74;101644.84;5076422;28;20013;-36
2022/07/29 06:22:03;;;;;;;4.75;2.00;;;;;;;16.76;75.92;101641.63;5075874;28;20492;-36
2022/07/29 06:24:28;;;;;;;;;;;;;;;16.91;74.71;101641.00;5077165;28;20028;-36
2022/07/29 06:26:53;;;;;;;4.33;2.20;;;;;;;16.70;75.33;101648.91;5075748;28;19912;-37
2022/07/29 06:29:18;;;;;;;;;;;;;;;16.89;74.70;101649.44;5077014;28;20036;-36
2022/07/29 06:31:44;;;;;;;3.70;2.23;;;;;;;16.73;75.60;101645.66;5075674;28;19912;-36
2022/07/29 06:34:09;;;;;;;;;;;;;;;16.89;75.12;101643.16;5075904;28;20039;-36
2022/07/29 06:36:36;;;;;;;6.35;2.30;;;;;;;16.88;75.51;101647.78;5076296;28;19908;-36
2022/07/29 06:39:06;;;;;;;6.57;2.10;;;;;;;16.93;74.83;101644.28;5075797;28;20036;-36
2022/07/29 06:41:32;;;;;;;8.52;2.22;;;;;;;16.99;74.70;101627.72;5075412;28;20032;-36
2022/07/29 06:43:57;;;;;;;;;;;;;;;17.20;73.78;101644.34;5076025;28;20023;-36
2022/07/29 06:46:22;;;;;;;6.27;2.47;;;;;;;16.94;73.81;101643.22;5076313;28;19915;-36
2022/07/29 06:48:48;;;;;;;;;;;;;;;17.21;73.08;101643.25;5076142;28;20387;-36
2022/07/29 06:51:13;;;;;;;3.42;1.85;;;;;;;17.20;73.84;101645.16;5075717;28;19909;-36
2022/07/29 06:53:39;;;;;;;;;;;;;;;17.35;73.20;101639.06;5076037;28;20074;-36
2022/07/29 06:56:08;;;;;;;5.05;2.63;;;;;;;17.23;74.59;101647.41;5076193;28;20304;-36
2022/07/29 06:58:33;;;;;;;4.53;2.40;;;;;;;17.36;73.72;101654.38;5075459;28;20170;-36
2022/07/29 07:01:00;;;;;;;;;;;;;;;17.54;72.78;101655.09;5076721;28;20040;-37
2022/07/29 07:03:26;;;;;;;3.88;2.05;;;;;;;17.45;73.63;101654.75;5075022;28;19954;-36
2022/07/29 07:05:52;;;;;;;;;;;;;;;17.66;72.54;101659.31;5076105;28;20028;-36
2022/07/29 07:08:19;;;;;;;3.88;2.60;;;;;;;17.51;73.47;101664.63;5075335;28;19908;-36
2022/07/29 07:10:45;;;;;;;7.72;2.85;;;;;;;17.56;72.60;101663.88;5075363;28;20040;-36
2022/07/29 07:13:10;;;;;;;7.60;2.78;;;;;;;17.54;72.77;101661.41;5075470;28;20349;-37
2022/07/29 07:15:36;;;;;;;;;;;;;;;17.73;71.70;101664.63;5076285;28;20035;-37
2022/07/29 07:18:02;;;;;;;4.97;2.33;;;;;;;17.53;72.94;101659.75;5075882;28;20312;-37
2022/07/29 07:20:27;;;;;;;;;;;;;;;17.74;71.93;101661.63;5075567;28;20024;-37
2022/07/29 07:22:53;;;;;;;3.45;2.35;;;;;;;17.61;71.94;101661.19;5075097;28;20003;-37
2022/07/29 07:25:18;;;;;;;;;;;;;;;17.77;71.58;101662.22;5075721;28;20468;-36
2022/07/29 07:27:44;;;;;;;5.43;2.30;;;;;;;17.59;71.87;101666.91;5075280;28;20336;-36
2022/07/29 07:30:10;;;;;;;4.07;2.17;;;;;;;17.51;71.77;101660.00;5075036;28;20036;-36
2022/07/29 07:32:35;;;;;;;;;;;;;;;17.60;71.01;101665.84;5075241;28;20040;-34
2022/07/29 07:35:01;;;;;;;3.53;2.30;;;;;;;17.38;73.17;101667.78;5075536;28;19944;-34
2022/07/29 07:37:26;;;;;;;;;;;;;;;17.56;71.73;101664.69;5075637;28;20452;-36
2022/07/29 07:39:52;;;;;;;4.57;2.33;;;;;;;17.66;72.89;101658.50;5074784;28;19913;-34
2022/07/29 07:42:19;;;;;;;4.05;2.45;;;;;;;17.73;71.52;101664.63;5074572;28;20033;-36
2022/07/29 07:44:45;;;;;;;5.28;2.70;;;;;;;17.68;71.96;101659.09;5074849;28;20089;-36
2022/07/29 07:47:11;;;;;;;9.00;2.70;;;;;;;17.74;71.65;101660.81;5074531;28;20028;-35
2022/07/29 07:49:36;;;;;;;;;;;;;;;17.93;71.34;101666.72;5074626;28;20028;-35
2022/07/29 07:52:02;;;;;;;7.73;2.80;;;;;;;17.88;71.05;101666.69;5074698;28;19921;-35
2022/07/29 07:54:27;;;;;;;;;;;;;;;17.99;71.01;101671.16;5075136;28;20290;-35
2022/07/29 07:56:52;;;;;;;4.63;2.63;;;;;;;17.84;71.01;101666.38;5074407;28;19917;-35
2022/07/29 07:59:17;;;;;;;;;;;;;;;18.06;70.49;101660.84;5074673;28;20033;-35
2022/07/29 08:01:43;;;;;;;7.53;2.60;;;;;;;18.28;71.13;101666.19;5073732;28;19939;-36
2022/07/29 08:04:08;;;;;;;;;;;;;;;18.47;70.40;101664.69;5074671;28;20043;-35
2022/07/29 08:06:37;;;;;;;6.05;2.60;;;;;;;18.51;69.24;101659.50;5074482;28;19958;-35
2022/07/29 08:09:04;;;;;;;6.88;3.25;;;;;;;18.48;68.98;101665.50;5074097;28;20465;-36
2022/07/29 08:11:29;;;;;;;4.57;2.60;;;;;;;18.49;68.76;101678.94;5074160;28;20029;-36
2022/07/29 08:13:55;;;;;;;3.60;2.10;;;;;;;18.63;68.50;101665.59;5074597;28;20025;-36
2022/07/29 08:16:20;;;;;;;;;;;;;;;18.90;69.12;101676.47;5074578;28;20068;-36
2022/07/29 08:18:46;;;;;;;6.40;2.85;;;;;;;18.90;67.52;101654.56;5074071;28;20328;-36
2022/07/29 08:21:12;;;;;;;;;;;;;;;19.16;67.48;101668.34;5075202;28;20074;-36
2022/07/29 08:23:45;;;;;;;4.53;2.80;;;;;;;19.01;66.84;101658.16;5074117;28;19915;-36
2022/07/29 08:26:12;;;;;;;6.38;2.55;;;;;;;19.15;67.34;101669.44;5074133;28;20358;-36
2022/07/29 08:28:39;;;;;;;6.88;3.10;;;;;;;19.32;65.95;101670.03;5073823;28;20025;-35
2022/07/29 08:31:04;;;;;;;5.90;2.70;;;;;;;19.38;66.51;101657.19;5074587;28;20365;-36
2022/07/29 08:33:30;;;;;;;4.60;2.38;;;;;;;19.47;66.42;101661.03;5073674;28;20025;-36
2022/07/29 08:35:55;;;;;;;4.85;2.65;;;;;;;19.63;65.86;101654.53;5073964;28;20099;-36
2022/07/29 08:38:20;;;;;;;5.35;2.75;;;;;;;19.63;66.38;101670.19;5073595;28;20482;-36
2022/07/29 08:40:46;;;;;;;4.97;2.40;;;;;;;19.82;66.88;101668.56;5073879;28;20035;-36
2022/07/29 08:43:12;;;;;;;5.38;2.90;;;;;;;19.85;65.44;101673.47;5073482;28;20431;-36
2022/07/29 08:45:46;;;;;;;7.53;2.63;;;;;;;20.03;65.60;101677.63;5073806;28;20055;-35
2022/07/29 08:48:16;;;;;;;5.70;2.85;;;;;;;20.24;65.39;101675.69;5073497;28;20028;-36
2022/07/29 08:50:42;;;;;;;5.53;2.70;;;;;;;20.32;64.01;101669.66;5073620;28;20056;-36
2022/07/29 08:53:11;;;;;;;7.30;2.42;;;;;;;20.57;63.45;101669.63;5073432;28;20131;-36
2022/07/29 08:55:41;;;;;;;4.38;2.45;;;;;;;20.68;63.48;101669.59;5073238;28;20057;-36
2022/07/29 08:58:07;;;;;;;3.80;2.55;;;;;;;20.67;63.16;101665.22;5073083;28;20028;-36
2022/07/29 09:00:35;;;;;;;5.95;2.60;;;;;;;20.85;62.59;101663.78;5073359;28;20082;-36
2022/07/29 09:03:01;;;;;;;5.30;2.40;;;;;;;20.96;62.90;101668.97;5072993;28;20031;-36
2022/07/29 09:05:28;;;;;;;7.57;2.70;;;;;;;20.92;60.19;101667.06;5073986;28;20031;-35
2022/07/29 09:07:53;;;;;;;3.78;2.90;;;;;;;20.96;61.05;101660.72;5073272;28;20067;-36
2022/07/29 09:10:19;;;;;;;6.80;2.83;;;;;;;21.08;60.32;101657.63;5073220;28;20431;-36
2022/07/29 09:12:44;;;;;;;3.47;2.20;;;;;;;21.27;60.35;101655.06;5072076;28;20112;-36
2022/07/29 09:15:10;;;;;;;6.63;2.00;;;;;;;21.57;59.31;101662.38;5073573;28;20032;-35
2022/07/29 09:17:42;;;;;;;7.43;2.55;;;;;;;21.67;59.54;101656.81;5073586;28;20028;-36
2022/07/29 09:20:13;;;;;;;3.75;2.55;;;;;;;21.82;58.72;101661.38;5074061;28;20068;-36
2022/07/29 09:22:39;;;;;;;3.67;2.70;;;;;;;21.76;57.83;101655.06;5073365;28;20021;-36
2022/07/29 09:25:05;;;;;;;4.30;2.45;;;;;;;22.04;58.94;101649.91;5073587;28;20105;-36
2022/07/29 09:27:31;;;;;;;6.15;2.17;;;;;;;22.19;56.72;101655.31;5072657;28;20085;-36
2022/07/29 09:30:00;;;;;;;8.18;2.50;;;;;;;22.34;55.45;101663.41;5073049;28;20043;-35
2022/07/29 09:32:27;;;;;;;5.35;2.40;;;;;;;22.38;55.13;101652.66;5072931;28;20033;-36
2022/07/29 09:35:23;;;;;;;5.93;2.42;;;;;;;22.40;55.85;101669.72;5073430;28;20078;-36
2022/07/29 09:37:49;;;;;;;5.15;2.63;;;;;;;22.53;53.89;101665.44;5072770;28;20024;-36
2022/07/29 09:40:28;;;;;;;6.30;2.33;;;;;;;22.57;54.61;101661.00;5073218;28;20029;-36
2022/07/29 09:42:56;;;;;;;3.85;1.90;;;;;;;22.74;53.62;101669.63;5072965;28;20033;-35
2022/07/29 09:45:29;;;;;;;3.78;2.00;;;;;;;22.94;52.50;101665.84;5072861;28;20457;-35
2022/07/29 09:47:56;;;;;;;2.70;2.15;;;;;;;22.90;51.82;101663.97;5072704;28;20028;-35
2022/07/29 09:50:25;;;;;;;3.97;1.92;;;;;;;23.01;52.27;101659.97;5072716;28;20031;-35
2022/07/29 09:52:53;;;;;;;3.78;1.85;;;;;;;23.17;50.82;101669.69;5072376;28;20029;-35
2022/07/29 09:55:19;;;;;;;3.95;1.80;;;;;;;23.10;50.85;101658.19;5072116;28;20095;-36
2022/07/29 09:57:45;;;;;;;6.20;1.83;;;;;;;23.09;49.76;101682.22;5072844;28;20032;-35
2022/07/29 10:00:13;;;;;;;4.63;1.85;;;;;;;23.27;51.51;101680.59;5072416;28;20021;-36
2022/07/29 10:02:43;;;;;;;8.20;2.40;;;;;;;23.23;51.92;101667.66;5072517;28;20078;-36
2022/07/29 10:05:29;;;;;;;4.53;2.10;;;;;;;23.10;52.54;101672.00;5072758;28;20064;-36
2022/07/29 10:07:57;;;;;;;6.88;1.98;;;;;;;23.05;51.97;101664.59;5073118;28;20025;-36
2022/07/29 10:10:34;;;;;;;3.22;1.80;;;;;;;23.31;53.36;101661.50;5072291;28;20104;-36
2022/07/29 10:13:01;;;;;;;5.78;1.75;;;;;;;23.22;50.37;101672.38;5073275;28;20044;-36
2022/07/29 10:15:31;;;;;;;4.18;1.92;;;;;;;23.23;51.64;101665.75;5072735;28;20107;-36
2022/07/29 10:17:58;;;;;;;5.68;2.30;;;;;;;23.13;50.01;101672.22;5072583;28;20021;-36
2022/07/29 10:20:24;;;;;;;7.30;2.30;;;;;;;23.32;50.47;101660.38;5072977;28;20108;-36
2022/07/29 10:22:51;;;;;;;3.70;1.98;;;;;;;23.35;52.81;101663.38;5072554;28;20033;-36
2022/07/29 10:25:17;;;;;;;3.25;1.95;;;;;;;23.56;50.73;101660.31;5076685;28;20060;-36
2022/07/29 10:27:43;;;;;;;4.57;2.05;;;;;;;23.69;50.63;101653.25;5076135;28;20033;-36
2022/07/29 10:30:11;;;;;;;4.95;2.15;;;;;;;23.64;49.13;101660.50;5076128;28;20046;-36
2022/07/29 10:33:05;;;;;;;4.45;1.92;;;;;;;23.94;50.62;101649.25;5076172;28;20373;-36
2022/07/29 10:35:36;;;;;;;5.40;1.80;;;;;;;24.30;49.06;101658.59;5076005;28;20028;-36
2022/07/29 10:38:17;;;;;;;4.80;2.00;;;;;;;24.33;48.53;101663.50;5075648;28;20090;-36
2022/07/29 10:41:27;;;;;;;3.58;1.90;;;;;;;24.58;47.73;101647.59;5076372;28;20040;-36
2022/07/29 10:44:04;;;;;;;4.85;1.55;;;;;;;24.78;46.31;101657.44;5076394;28;20024;-36
2022/07/29 10:46:36;;;;;;;3.28;1.67;;;;;;;24.86;45.89;101646.47;5075817;28;20066;-36
2022/07/29 10:49:21;;;;;;;5.63;1.90;;;;;;;25.03;46.59;101656.06;5075853;28;20024;-36
2022/07/29 10:52:02;;;;;;;8.25;2.22;;;;;;;25.18;46.37;101650.25;5075731;28;20020;-36
2022/07/29 10:54:39;;;;;;;5.13;2.00;;;;;;;25.25;45.74;101653.44;5076092;28;20024;-36
2022/07/29 10:57:16;;;;;;;5.80;2.08;;;;;;;24.81;45.01;101646.56;5076511;28;20460;-36
2022/07/29 10:59:44;;;;;;;7.40;2.50;;;;;;;24.82;45.20;101637.13;5075641;28;20024;-36
2022/07/29 11:02:34;;;;;;;3.08;1.40;;;;;;;25.09;46.55;101644.66;5075271;28;20499;-35
2022/07/29 11:05:03;;;;;;;3.20;1.45;;;;;;;25.12;45.12;101652.31;5075556;28;20029;-35
2022/07/29 11:07:33;;;;;;;5.22;1.58;;;;;;;25.13;44.36;101642.06;5075826;28;20067;-35
2022/07/29 11:10:11;;;;;;;6.85;1.90;;;;;;;24.98;45.10;101640.41;5076069;28;20023;-36
2022/07/29 11:12:36;;;;;;;4.10;1.90;;;;;;;25.11;45.52;101644.31;5075217;28;20154;-36
2022/07/29 11:15:07;;;;;;;3.15;1.75;;;;;;;24.95;43.73;101634.69;5074959;28;20481;-36
2022/07/29 11:17:51;;;;;;;4.03;2.03;;;;;;;25.14;45.40;101646.47;5075399;28;20384;-36
2022/07/29 11:20:41;;;;;;;3.47;1.50;;;;;;;25.42;45.34;101628.66;5075862;28;20380;-36
2022/07/29 11:23:19;;;;;;;3.45;1.92;;;;;;;25.51;43.86;101639.00;5075030;28;20380;-36
2022/07/29 11:25:45;;;;;;;4.18;1.60;;;;;;;25.23;43.49;101646.53;5075567;28;20032;-36
2022/07/29 11:28:18;;;;;;;4.28;1.67;;;;;;;25.25;44.87;101645.13;5074877;28;20032;-36
2022/07/29 11:30:50;;;;;;;3.95;1.60;;;;;;;25.40;45.23;101636.47;5075015;28;20094;-36
2022/07/29 11:33:32;;;;;;;7.03;1.88;;;;;;;25.64;44.66;101632.59;5074610;28;20032;-36
2022/07/29 11:36:11;;;;;;;5.43;2.13;;;;;;;25.54;44.01;101625.34;5073908;28;20024;-37
2022/07/29 11:38:36;;;;;;;3.20;1.58;;;;;;;25.60;43.59;101629.63;5074558;28;20024;-37
2022/07/29 11:41:17;;;;;;;4.93;1.67;;;;;;;25.90;43.40;101635.56;5075134;28;20120;-37
2022/07/29 11:43:50;;;;;;;5.32;1.65;;;;;;;25.88;43.09;101638.69;5074589;28;20025;-37
2022/07/29 11:46:18;;;;;;;5.40;1.83;;;;;;;25.66;42.91;101638.63;5074872;28;20029;-36
2022/07/29 11:48:44;;;;;;;4.68;1.75;;;;;;;25.64;43.77;101636.19;5074510;28;20033;-37